Time;durP1;ratioP1;P1;durP2;ratioP2;P2;SDS_P1;SDS_P2;PMS_P1;PMS_P2;Temp;Humidity;BMP_temperature;BMP_pressure;BME280_temperature;BME280_humidity;BME280_pressure;Samples;Min_cycle;Max_cycle;Signal;HPM_P1;HPM_P2
2024/02/18 00:01:32;;;;;;;37.08;17.23;;;;;;;4.42;79.26;100886.47;5031494;28;20046;-26
2024/02/18 00:03:58;;;;;;;40.35;17.17;;;;;;;4.55;79.03;100892.31;5031631;28;20104;-24
2024/02/18 00:06:24;;;;;;;41.65;17.98;;;;;;;4.17;79.84;100872.81;5031359;28;20505;-26
2024/02/18 00:08:49;;;;;;;35.85;16.15;;;;;;;4.26;79.26;100882.53;5031208;28;20083;-25
2024/02/18 00:11:16;;;;;;;36.53;17.52;;;;;;;4.41;79.09;100898.78;5031282;28;20029;-26
2024/02/18 00:13:41;;;;;;;36.05;17.33;;;;;;;4.48;78.78;100891.19;5031186;28;20640;-25
2024/02/18 00:16:07;;;;;;;36.38;16.98;;;;;;;4.35;79.45;100894.06;5031062;28;20029;-25
2024/02/18 00:18:32;;;;;;;34.70;17.27;;;;;;;4.47;78.70;100892.16;5031248;28;20034;-26
2024/02/18 00:20:57;;;;;;;37.00;17.25;;;;;;;4.46;78.86;100887.88;5031134;28;20048;-26
2024/02/18 00:23:23;;;;;;;35.95;16.88;;;;;;;4.35;80.97;100891.44;5031214;28;20040;-26
2024/02/18 00:25:49;;;;;;;36.88;16.83;;;;;;;4.38;79.26;100892.97;5030835;28;20056;-26
2024/02/18 00:28:14;;;;;;;36.25;16.25;;;;;;;4.35;78.76;100887.97;5031187;28;20034;-26
2024/02/18 00:30:40;;;;;;;41.90;18.70;;;;;;;4.53;78.43;100893.41;5031078;28;20017;-25
2024/02/18 00:33:05;;;;;;;35.45;16.55;;;;;;;4.23;78.85;100888.09;5031305;28;20029;-25
2024/02/18 00:35:30;;;;;;;36.08;16.98;;;;;;;4.27;78.88;100886.84;5031013;28;20397;-26
2024/02/18 00:37:56;;;;;;;36.15;16.45;;;;;;;4.15;79.20;100890.56;5030802;28;20478;-25
2024/02/18 00:40:21;;;;;;;36.88;17.63;;;;;;;3.81;80.87;100888.22;5031033;28;20025;-26
2024/02/18 00:42:47;;;;;;;38.20;17.20;;;;;;;3.55;82.49;100886.97;5031163;28;20108;-26
2024/02/18 00:45:13;;;;;;;39.10;16.98;;;;;;;3.80;81.52;100878.63;5030986;28;20579;-26
2024/02/18 00:47:38;;;;;;;50.95;17.52;;;;;;;3.80;81.32;100877.78;5031186;28;20025;-26
2024/02/18 00:50:04;;;;;;;39.33;16.83;;;;;;;3.90;80.31;100878.66;5031011;28;20013;-25
2024/02/18 00:52:30;;;;;;;38.25;17.33;;;;;;;3.50;80.96;100853.97;5030744;28;20508;-26
2024/02/18 00:54:55;;;;;;;41.03;18.52;;;;;;;3.51;82.27;100881.13;5031041;28;20060;-26
2024/02/18 00:57:20;;;;;;;39.85;19.02;;;;;;;3.49;83.11;100875.16;5030728;28;20026;-26
2024/02/18 00:59:46;;;;;;;42.55;21.05;;;;;;;3.57;83.19;100866.59;5030731;28;20555;-26
2024/02/18 01:02:11;;;;;;;45.25;21.00;;;;;;;3.53;83.56;100869.47;5030793;28;20104;-26
2024/02/18 01:04:36;;;;;;;44.20;18.25;;;;;;;3.46;82.52;100868.31;5029318;28;20029;-26
2024/02/18 01:07:02;;;;;;;35.85;17.95;;;;;;;3.52;82.86;100869.59;5030799;28;20021;-26
2024/02/18 01:09:27;;;;;;;41.53;18.83;;;;;;;3.55;82.45;100871.16;5030628;28;20358;-26
2024/02/18 01:11:53;;;;;;;37.63;17.55;;;;;;;3.54;81.88;100870.31;5030600;28;20029;-26
2024/02/18 01:14:18;;;;;;;38.58;17.27;;;;;;;3.45;81.88;100865.84;5030528;28;20100;-25
2024/02/18 01:16:44;;;;;;;42.60;17.30;;;;;;;3.28;83.95;100862.84;5030658;28;20470;-26
2024/02/18 01:19:09;;;;;;;42.67;17.08;;;;;;;3.33;83.38;100847.50;5030519;28;20026;-26
2024/02/18 01:21:34;;;;;;;39.03;17.35;;;;;;;3.43;82.68;100863.34;5030658;28;20026;-26
2024/02/18 01:24:00;;;;;;;38.50;17.77;;;;;;;3.22;82.96;100855.47;5030273;28;20033;-26
2024/02/18 01:26:25;;;;;;;38.65;18.45;;;;;;;3.15;84.24;100858.72;5039036;28;20036;-26
2024/02/18 01:28:50;;;;;;;39.05;17.52;;;;;;;3.20;84.59;100857.38;5050371;28;20083;-26
2024/02/18 01:31:16;;;;;;;39.15;17.60;;;;;;;3.39;82.72;100850.56;5050403;28;20052;-26
2024/02/18 01:33:43;;;;;;;34.42;16.80;;;;;;;3.26;83.20;100848.97;5050167;28;20044;-26
2024/02/18 01:36:09;;;;;;;42.22;18.55;;;;;;;3.24;83.03;100845.63;5050164;28;20373;-25
2024/02/18 01:38:35;;;;;;;42.03;19.15;;;;;;;3.38;82.94;100847.09;5050289;28;20102;-26
2024/02/18 01:41:00;;;;;;;44.85;19.55;;;;;;;3.44;82.04;100845.75;5050297;28;20100;-26
2024/02/18 01:43:26;;;;;;;45.47;19.73;;;;;;;3.38;81.22;100854.16;5050059;28;20044;-25
2024/02/18 01:45:51;;;;;;;42.90;18.70;;;;;;;3.25;81.23;100857.00;5050559;28;20107;-26
2024/02/18 01:48:18;;;;;;;40.58;17.77;;;;;;;3.22;80.47;100850.19;5050275;28;20090;-26
2024/02/18 01:50:45;;;;;;;36.97;17.50;;;;;;;3.03;81.26;100840.38;5050298;28;20037;-26
2024/02/18 01:53:11;;;;;;;35.88;17.17;;;;;;;3.33;81.17;100831.72;5049939;28;20468;-26
2024/02/18 01:55:37;;;;;;;44.30;20.13;;;;;;;2.94;81.92;100834.06;5049809;28;20115;-26
2024/02/18 01:58:04;;;;;;;44.70;19.75;;;;;;;2.84;83.13;100837.63;5049906;28;20066;-26
2024/02/18 02:00:30;;;;;;;38.72;17.85;;;;;;;2.69;83.14;100837.91;5050684;28;20083;-27
2024/02/18 02:02:56;;;;;;;41.30;19.10;;;;;;;2.41;85.46;100827.97;5053515;28;20555;-26
2024/02/18 02:05:22;;;;;;;42.50;18.60;;;;;;;2.73;85.55;100839.31;5053412;28;20028;-26
2024/02/18 02:07:51;;;;;;;40.30;18.67;;;;;;;2.55;85.29;100840.81;5053435;28;20020;-26
2024/02/18 02:10:17;;;;;;;37.40;17.17;;;;;;;2.76;85.29;100832.13;5053534;28;20048;-26
2024/02/18 02:12:44;;;;;;;39.28;18.88;;;;;;;2.54;85.67;100841.78;5053596;28;20032;-26
2024/02/18 02:15:10;;;;;;;42.58;18.45;;;;;;;2.64;85.60;100824.28;5053384;28;20124;-27
2024/02/18 02:17:40;;;;;;;42.03;17.98;;;;;;;2.63;85.55;100837.59;5053433;28;20066;-27
2024/02/18 02:20:09;;;;;;;39.28;18.90;;;;;;;2.69;84.59;100816.88;5053526;28;20029;-27
2024/02/18 02:22:34;;;;;;;43.08;18.48;;;;;;;2.54;85.95;100828.63;5053102;28;20037;-26
2024/02/18 02:25:00;;;;;;;38.85;18.48;;;;;;;2.43;85.82;100823.41;5053296;28;20069;-26
2024/02/18 02:27:33;;;;;;;41.47;17.77;;;;;;;2.61;85.32;100821.94;5053273;28;20025;-26
2024/02/18 02:29:59;;;;;;;36.78;17.65;;;;;;;2.73;84.80;100828.78;5053216;28;20021;-26
2024/02/18 02:32:24;;;;;;;39.20;17.88;;;;;;;2.58;84.55;100816.91;5048809;28;20044;-27
2024/02/18 02:34:52;;;;;;;37.35;17.08;;;;;;;2.45;85.73;100835.47;5033935;28;20053;-26
2024/02/18 02:37:18;;;;;;;39.40;17.85;;;;;;;2.77;83.88;100833.81;5044226;28;20072;-27
2024/02/18 02:39:43;;;;;;;37.08;17.50;;;;;;;2.78;83.89;100830.22;5048822;28;20054;-26
2024/02/18 02:42:09;;;;;;;39.03;17.48;;;;;;;2.73;83.68;100825.34;5050141;28;20074;-26
2024/02/18 02:44:35;;;;;;;33.63;16.85;;;;;;;2.29;85.84;100828.00;5033458;28;20045;-26
2024/02/18 02:47:00;;;;;;;41.00;17.88;;;;;;;2.27;85.93;100836.97;5035982;28;20052;-26
2024/02/18 02:49:26;;;;;;;39.10;17.58;;;;;;;2.26;86.09;100830.84;5033654;28;20087;-26
2024/02/18 02:51:51;;;;;;;37.58;17.38;;;;;;;2.54;84.53;100826.00;5042648;28;20112;-27
2024/02/18 02:54:17;;;;;;;37.28;17.77;;;;;;;2.64;83.98;100823.47;5053143;28;20094;-27
2024/02/18 02:56:42;;;;;;;39.55;16.85;;;;;;;2.64;83.88;100837.44;5053269;28;20036;-26
2024/02/18 02:59:07;;;;;;;38.78;17.13;;;;;;;2.29;85.09;100833.25;5047743;28;20029;-26
2024/02/18 03:01:33;;;;;;;38.03;16.73;;;;;;;2.35;85.51;100838.00;5052562;28;20037;-26
2024/02/18 03:03:58;;;;;;;41.28;17.52;;;;;;;2.64;84.10;100840.06;5052138;28;20021;-26
2024/02/18 03:06:24;;;;;;;35.50;17.20;;;;;;;2.66;83.90;100838.13;5051889;28;20037;-23
2024/02/18 03:08:49;;;;;;;40.25;16.90;;;;;;;2.83;82.58;100828.88;5051887;28;20083;-25
2024/02/18 03:11:15;;;;;;;37.00;16.63;;;;;;;2.56;83.42;100842.50;5051724;28;20468;-27
2024/02/18 03:13:40;;;;;;;36.92;18.05;;;;;;;2.89;83.04;100835.41;5051701;28;20029;-26
2024/02/18 03:16:05;;;;;;;42.38;16.98;;;;;;;2.76;81.70;100840.03;5032403;28;20488;-27
2024/02/18 03:18:32;;;;;;;37.85;17.40;;;;;;;2.61;81.78;100842.09;5031782;28;20377;-27
2024/02/18 03:20:57;;;;;;;37.05;17.40;;;;;;;2.61;81.48;100819.31;5032017;28;20680;-26
2024/02/18 03:23:23;;;;;;;36.58;16.45;;;;;;;2.42;82.43;100837.50;5031914;28;20026;-26
2024/02/18 03:25:48;;;;;;;38.10;16.75;;;;;;;2.45;82.25;100832.00;5031849;28;20037;-24
2024/02/18 03:28:13;;;;;;;36.58;17.13;;;;;;;2.32;82.68;100830.38;5032240;28;20113;-25
2024/02/18 03:30:39;;;;;;;35.47;16.08;;;;;;;2.30;82.59;100839.31;5031892;28;20021;-25
2024/02/18 03:33:05;;;;;;;39.33;17.48;;;;;;;2.19;84.16;100839.34;5051794;28;20056;-25
2024/02/18 03:35:30;;;;;;;35.13;17.15;;;;;;;1.95;85.28;100846.44;5051704;28;20126;-25
2024/02/18 03:37:56;;;;;;;35.92;17.30;;;;;;;1.84;85.45;100851.69;5051470;28;20111;-26
2024/02/18 03:40:22;;;;;;;35.70;17.00;;;;;;;1.93;85.28;100837.84;5051709;28;20051;-25
2024/02/18 03:42:48;;;;;;;36.72;16.73;;;;;;;1.79;86.57;100843.34;5051468;28;20025;-26
2024/02/18 03:45:14;;;;;;;36.70;16.45;;;;;;;1.74;86.78;100854.19;5051489;28;20024;-25
2024/02/18 03:47:39;;;;;;;35.95;16.70;;;;;;;1.84;87.54;100843.81;5051335;28;20021;-24
2024/02/18 03:50:05;;;;;;;33.97;16.60;;;;;;;1.67;87.99;100849.53;5051554;28;20021;-26
2024/02/18 03:52:31;;;;;;;37.90;17.58;;;;;;;1.67;87.71;100853.00;5051212;28;20104;-25
2024/02/18 03:54:56;;;;;;;44.70;19.13;;;;;;;1.69;87.72;100845.00;5051667;28;20025;-25
2024/02/18 03:57:21;;;;;;;44.10;18.63;;;;;;;1.72;87.92;100863.16;5051986;28;20032;-26
2024/02/18 03:59:47;;;;;;;40.95;18.92;;;;;;;1.72;88.42;100863.97;5051600;28;20476;-25
2024/02/18 04:02:12;;;;;;;41.00;19.55;;;;;;;1.77;87.76;100860.97;5050221;28;20492;-25
2024/02/18 04:04:38;;;;;;;47.63;19.45;;;;;;;1.86;88.64;100862.06;5051707;28;20027;-26
2024/02/18 04:07:03;;;;;;;41.45;18.08;;;;;;;1.90;88.11;100861.69;5051488;28;20025;-25
2024/02/18 04:09:29;;;;;;;42.95;17.92;;;;;;;1.82;88.60;100858.84;5051571;28;20095;-26
2024/02/18 04:11:54;;;;;;;46.78;18.95;;;;;;;1.89;88.85;100857.41;5051208;28;20025;-39
2024/02/18 04:14:20;;;;;;;43.47;17.80;;;;;;;1.92;87.32;100865.06;5046380;28;20013;-39
2024/02/18 04:16:45;;;;;;;42.17;18.38;;;;;;;1.98;87.88;100860.25;5031120;28;20107;-39
2024/02/18 04:19:10;;;;;;;44.13;18.75;;;;;;;1.81;88.16;100865.06;5031052;28;20044;-40
2024/02/18 04:21:36;;;;;;;45.35;20.30;;;;;;;2.08;87.04;100869.09;5031187;28;20021;-40
2024/02/18 04:24:01;;;;;;;46.50;20.90;;;;;;;1.72;87.29;100850.03;5030437;28;20402;-40
2024/02/18 04:26:26;;;;;;;43.30;18.95;;;;;;;1.69;86.92;100863.38;5031229;28;20136;-40
2024/02/18 04:28:52;;;;;;;41.20;19.27;;;;;;;1.54;87.77;100855.75;5031164;28;20488;-39
2024/02/18 04:31:17;;;;;;;40.35;18.85;;;;;;;1.44;87.50;100864.44;5031016;28;20021;-40
2024/02/18 04:33:43;;;;;;;45.85;19.65;;;;;;;1.47;88.28;100858.97;5030971;28;20025;-40
2024/02/18 04:36:08;;;;;;;40.75;18.52;;;;;;;1.55;88.15;100864.44;5030854;28;20030;-41
2024/02/18 04:38:34;;;;;;;42.92;19.45;;;;;;;1.66;86.33;100866.25;5031100;28;20144;-40
2024/02/18 04:41:00;;;;;;;46.65;19.77;;;;;;;1.84;85.70;100869.22;5029569;28;20029;-41
2024/02/18 04:43:26;;;;;;;43.60;18.45;;;;;;;1.56;86.11;100856.47;5030855;28;20025;-40
2024/02/18 04:45:51;;;;;;;42.40;18.17;;;;;;;1.29;87.37;100856.75;5030831;28;20028;-40
2024/02/18 04:48:16;;;;;;;38.90;17.20;;;;;;;1.05;87.86;100859.47;5031296;28;20045;-39
2024/02/18 04:50:42;;;;;;;39.67;17.63;;;;;;;1.07;89.02;100852.31;5030676;28;20483;-38
2024/02/18 04:53:07;;;;;;;39.42;18.42;;;;;;;0.97;87.95;100857.41;5030697;28;20026;-37
2024/02/18 04:55:33;;;;;;;50.03;17.92;;;;;;;1.04;87.64;100852.53;5030424;28;20079;-39
2024/02/18 04:57:59;;;;;;;42.17;18.42;;;;;;;0.85;88.46;100844.38;5030592;28;20040;-37
2024/02/18 05:00:25;;;;;;;39.65;18.63;;;;;;;0.89;88.86;100857.13;5041911;28;20039;-40
2024/02/18 05:02:50;;;;;;;48.53;20.85;;;;;;;1.01;87.59;100844.06;5050957;28;20104;-39
2024/02/18 05:05:15;;;;;;;37.80;17.52;;;;;;;0.98;87.39;100842.50;5050932;28;20100;-39
2024/02/18 05:07:41;;;;;;;42.03;18.23;;;;;;;0.98;87.51;100840.72;5045570;28;20053;-40
2024/02/18 05:10:07;;;;;;;38.75;17.83;;;;;;;0.92;88.73;100850.84;5041245;28;20654;-40
2024/02/18 05:12:32;;;;;;;41.50;18.42;;;;;;;1.02;87.97;100850.97;5033648;28;20104;-40
2024/02/18 05:14:58;;;;;;;37.70;17.75;;;;;;;0.98;87.57;100850.38;5040654;28;20044;-40
2024/02/18 05:17:24;;;;;;;44.38;18.10;;;;;;;1.04;88.83;100849.91;5049917;28;20036;-40
2024/02/18 05:19:51;;;;;;;44.30;18.15;;;;;;;1.02;88.23;100837.88;5050845;28;20025;-39
2024/02/18 05:22:16;;;;;;;42.85;18.27;;;;;;;1.26;88.37;100843.91;5044558;28;20024;-39
2024/02/18 05:24:42;;;;;;;39.00;18.75;;;;;;;1.30;87.39;100849.75;5040039;28;20606;-40
2024/02/18 05:27:07;;;;;;;40.72;17.65;;;;;;;1.43;87.31;100853.09;5042162;28;20040;-38
2024/02/18 05:29:33;;;;;;;38.70;17.35;;;;;;;1.36;87.56;100857.13;5041435;28;20526;-39
2024/02/18 05:31:58;;;;;;;43.30;18.05;;;;;;;1.45;87.93;100851.19;5035523;28;20620;-39
2024/02/18 05:34:23;;;;;;;42.55;18.13;;;;;;;1.40;87.45;100842.00;5031935;28;20029;-41
2024/02/18 05:36:49;;;;;;;44.05;19.00;;;;;;;1.62;86.59;100849.03;5052740;28;20025;-40
2024/02/18 05:39:14;;;;;;;45.10;17.50;;;;;;;1.60;85.90;100843.94;5044695;28;20549;-38
2024/02/18 05:41:40;;;;;;;39.42;17.52;;;;;;;1.68;86.75;100851.22;5047903;28;20028;-40
2024/02/18 05:44:06;;;;;;;40.63;17.75;;;;;;;1.67;86.58;100860.03;5052948;28;20075;-39
2024/02/18 05:46:31;;;;;;;42.47;19.58;;;;;;;1.92;86.17;100865.06;5041216;28;20056;-40
2024/02/18 05:48:57;;;;;;;39.15;17.73;;;;;;;2.15;84.85;100867.66;5034250;28;20031;-40
2024/02/18 05:51:22;;;;;;;41.22;19.13;;;;;;;2.42;83.72;100871.66;5034328;28;20022;-40
2024/02/18 05:53:47;;;;;;;46.53;20.77;;;;;;;2.45;84.19;100880.13;5034372;28;20021;-39
2024/02/18 05:56:13;;;;;;;44.92;20.83;;;;;;;2.44;83.94;100880.28;5034466;28;20419;-40
2024/02/18 05:58:38;;;;;;;43.60;20.52;;;;;;;2.64;84.01;100876.03;5033083;28;20441;-41
2024/02/18 06:01:04;;;;;;;38.72;19.85;;;;;;;2.74;83.31;100883.06;5034391;28;20032;-40
2024/02/18 06:03:29;;;;;;;42.67;20.48;;;;;;;3.31;81.38;100880.16;5034402;28;20028;-40
2024/02/18 06:05:55;;;;;;;38.92;19.75;;;;;;;3.64;80.21;100887.00;5034240;28;20087;-40
2024/02/18 06:08:20;;;;;;;41.17;18.92;;;;;;;3.61;79.61;100876.72;5034099;28;20483;-40
2024/02/18 06:10:46;;;;;;;41.85;20.40;;;;;;;3.84;78.76;100876.56;5034117;28;20088;-40
2024/02/18 06:13:11;;;;;;;42.00;20.30;;;;;;;4.23;77.53;100882.81;5034061;28;20456;-41
2024/02/18 06:15:37;;;;;;;37.97;18.67;;;;;;;4.38;77.29;100887.69;5034038;28;20449;-41
2024/02/18 06:18:03;;;;;;;42.63;19.60;;;;;;;4.29;77.01;100889.34;5034311;28;20081;-40
2024/02/18 06:20:30;;;;;;;41.80;18.77;;;;;;;4.16;77.80;100886.94;5034136;28;20024;-41
2024/02/18 06:22:56;;;;;;;41.88;19.17;;;;;;;4.47;77.00;100886.88;5033887;28;20100;-41
2024/02/18 06:25:21;;;;;;;38.95;17.58;;;;;;;4.76;76.23;100888.72;5033733;28;20057;-40
2024/02/18 06:27:47;;;;;;;39.83;18.98;;;;;;;4.93;75.44;100895.97;5033591;28;20026;-42
2024/02/18 06:30:13;;;;;;;39.22;19.88;;;;;;;4.74;75.79;100886.25;5033803;28;20017;-40
2024/02/18 06:32:38;;;;;;;40.88;18.83;;;;;;;4.90;75.84;100888.31;5033885;28;20017;-40
2024/02/18 06:35:04;;;;;;;42.80;19.52;;;;;;;5.03;74.45;100893.34;5033694;28;20420;-42
2024/02/18 06:37:30;;;;;;;43.42;19.95;;;;;;;5.51;69.45;100897.72;5033648;28;20037;-40
2024/02/18 06:39:55;;;;;;;45.90;19.65;;;;;;;5.67;69.90;100882.13;5034023;28;20440;-41
2024/02/18 06:42:20;;;;;;;43.50;19.48;;;;;;;6.32;67.11;100902.47;5033663;28;20517;-41
2024/02/18 06:44:46;;;;;;;44.97;21.02;;;;;;;6.61;65.22;100897.00;5033903;28;20028;-42
2024/02/18 06:47:11;;;;;;;39.15;18.33;;;;;;;6.48;66.73;100914.22;5037658;28;20528;-41
2024/02/18 06:49:37;;;;;;;35.40;18.48;;;;;;;6.59;67.04;100900.78;5053374;28;20028;-42
2024/02/18 06:52:03;;;;;;;37.53;19.38;;;;;;;7.12;64.01;100902.59;5053702;28;20040;-39
2024/02/18 06:54:29;;;;;;;45.92;20.90;;;;;;;6.51;63.83;100911.25;5053618;28;20017;-40
2024/02/18 06:56:54;;;;;;;41.38;20.85;;;;;;;6.66;64.53;100907.13;5053095;28;20037;-41
2024/02/18 06:59:19;;;;;;;44.88;19.25;;;;;;;7.08;64.18;100905.69;5053509;28;20400;-41
2024/02/18 07:01:47;;;;;;;40.15;19.77;;;;;;;7.29;63.01;100902.72;5053187;28;20033;-41
2024/02/18 07:04:12;;;;;;;43.13;19.42;;;;;;;7.30;63.17;100899.09;5051768;28;20020;-41
2024/02/18 07:06:38;;;;;;;41.10;19.67;;;;;;;7.07;64.95;100898.75;5052783;28;20021;-39
2024/02/18 07:09:03;;;;;;;34.92;18.60;;;;;;;7.41;63.22;100899.69;5038427;28;20017;-41
2024/02/18 07:11:29;;;;;;;49.08;20.52;;;;;;;7.55;63.08;100892.97;5042034;28;20035;-40
2024/02/18 07:13:55;;;;;;;39.60;18.55;;;;;;;7.84;61.43;100894.47;5053033;28;20025;-42
2024/02/18 07:16:20;;;;;;;41.28;20.20;;;;;;;8.02;61.00;100902.38;5053372;28;20029;-26
2024/02/18 07:18:46;;;;;;;46.05;21.60;;;;;;;8.20;60.58;100891.66;5053375;28;20492;-28
2024/02/18 07:21:14;;;;;;;40.95;19.35;;;;;;;8.82;58.96;100887.91;5053066;28;20025;-29
2024/02/18 07:23:40;;;;;;;35.22;17.55;;;;;;;9.14;78.23;100895.06;5052393;28;20032;-28
2024/02/18 07:26:13;;;;;;;37.03;19.60;;;;;;;9.88;64.65;100893.13;5052805;28;20107;-27
2024/02/18 07:28:40;;;;;;;39.13;18.23;;;;;;;9.60;58.09;100900.66;5052989;28;20204;-28
2024/02/18 07:31:05;;;;;;;34.35;18.00;;;;;;;10.21;60.86;100898.31;5052676;28;20087;-27
2024/02/18 07:33:31;;;;;;;38.63;19.23;;;;;;;10.29;55.62;100894.78;5051478;28;20056;-27
2024/02/18 07:35:56;;;;;;;37.47;19.42;;;;;;;10.92;58.72;100891.09;5050381;28;20081;-28
2024/02/18 07:38:21;;;;;;;36.47;19.48;;;;;;;11.59;56.26;100884.19;5033348;28;20071;-28
2024/02/18 07:40:47;;;;;;;40.67;21.58;;;;;;;11.39;54.59;100905.22;5052741;28;20500;-28
2024/02/18 07:43:14;;;;;;;35.33;18.48;;;;;;;11.27;59.56;100893.31;5052569;28;20668;-27
2024/02/18 07:45:40;;;;;;;37.22;19.58;;;;;;;12.04;53.07;100889.59;5052360;28;20494;-28
2024/02/18 07:48:06;;;;;;;34.15;18.27;;;;;;;12.42;53.67;100884.91;5052307;28;20108;-27
2024/02/18 07:50:31;;;;;;;35.42;19.42;;;;;;;12.82;50.05;100898.72;5043947;28;20442;-27
2024/02/18 07:52:56;;;;;;;33.47;18.52;;;;;;;12.45;48.08;100895.22;5034067;28;20025;-28
2024/02/18 07:55:22;;;;;;;39.28;19.30;;;;;;;12.17;50.77;100888.94;5047930;28;20461;-27
2024/02/18 07:57:47;;;;;;;33.58;18.13;;;;;;;13.05;53.19;100893.16;5046041;28;20420;-28
2024/02/18 08:00:14;;;;;;;33.55;18.23;;;;;;;14.48;49.63;100895.53;5033278;28;20036;-28
2024/02/18 08:02:40;;;;;;;35.95;19.50;;;;;;;15.25;45.97;100899.63;5043167;28;20025;-28
2024/02/18 08:05:07;;;;;;;84.70;19.05;;;;;;;15.72;46.38;100878.09;5052225;28;20044;-29
2024/02/18 08:07:33;;;;;;;32.65;18.15;;;;;;;16.55;43.30;100882.78;5052498;28;20025;-28
2024/02/18 08:09:58;;;;;;;29.63;16.80;;;;;;;17.07;39.56;100885.34;5051916;28;20043;-28
2024/02/18 08:12:23;;;;;;;29.77;17.50;;;;;;;17.72;41.86;100884.16;5051090;28;20017;-30
2024/02/18 08:14:49;;;;;;;31.63;18.88;;;;;;;17.67;38.22;100889.38;5051320;28;20021;-27
2024/02/18 08:17:14;;;;;;;32.97;18.98;;;;;;;17.91;37.74;100885.84;5051171;28;20057;-28
2024/02/18 08:19:40;;;;;;;35.33;21.60;;;;;;;17.81;37.48;100880.13;5051213;28;20031;-28
2024/02/18 08:22:07;;;;;;;40.72;23.67;;;;;;;17.71;37.14;100866.38;5037518;28;20036;-28
2024/02/18 08:24:32;;;;;;;35.45;21.40;;;;;;;17.68;38.61;100867.63;5046048;28;20051;-29
2024/02/18 08:26:58;;;;;;;36.15;20.27;;;;;;;17.90;37.41;100868.06;5050823;28;20119;-29
2024/02/18 08:29:23;;;;;;;34.47;19.25;;;;;;;18.26;39.07;100866.38;5050035;28;20114;-27
2024/02/18 08:31:49;;;;;;;31.20;19.25;;;;;;;18.77;38.31;100866.91;5050618;28;20031;-29
2024/02/18 08:34:14;;;;;;;36.42;20.63;;;;;;;19.09;36.39;100872.84;5048986;28;20142;-28
2024/02/18 08:36:40;;;;;;;40.13;21.85;;;;;;;19.28;34.79;100872.78;5050636;28;20028;-28
2024/02/18 08:39:05;;;;;;;38.13;21.48;;;;;;;19.32;35.69;100869.38;5049411;28;20473;-28
2024/02/18 08:41:30;;;;;;;34.25;21.33;;;;;;;19.28;37.69;100870.06;5049699;28;20033;-28
2024/02/18 08:43:56;;;;;;;33.55;20.83;;;;;;;19.38;34.72;100864.94;5049753;28;20024;-27
2024/02/18 08:46:22;;;;;;;37.15;22.75;;;;;;;19.64;33.07;100865.50;5050474;28;20029;-27
2024/02/18 08:48:47;;;;;;;35.17;21.77;;;;;;;19.02;34.34;100858.69;5050554;28;20599;-26
2024/02/18 08:51:13;;;;;;;32.47;19.45;;;;;;;18.65;34.90;100855.28;5051278;28;20033;-27
2024/02/18 08:53:40;;;;;;;31.63;18.40;;;;;;;18.85;37.04;100855.84;5051078;28;20039;-27
2024/02/18 08:56:12;;;;;;;30.55;17.75;;;;;;;18.18;36.90;100855.91;5050529;28;20524;-28
2024/02/18 08:58:37;;;;;;;29.95;18.08;;;;;;;18.91;37.06;100848.69;5035057;28;20025;-27
2024/02/18 09:01:03;;;;;;;28.20;17.13;;;;;;;19.37;35.52;100855.19;5031126;28;20572;-27
2024/02/18 09:03:30;;;;;;;28.20;16.70;;;;;;;19.92;33.65;100852.09;5047099;28;20096;-27
2024/02/18 09:05:57;;;;;;;24.38;15.63;;;;;;;19.71;36.10;100858.91;5050909;28;20024;-29
2024/02/18 09:08:22;;;;;;;29.15;16.88;;;;;;;20.53;33.55;100851.63;5050244;28;20023;-28
2024/02/18 09:10:48;;;;;;;26.48;16.70;;;;;;;20.81;31.75;100836.44;5032341;28;20021;-28
2024/02/18 09:13:14;;;;;;;24.80;16.55;;;;;;;20.68;32.30;100843.03;5041208;28;20025;-28
2024/02/18 09:15:39;;;;;;;27.92;16.33;;;;;;;20.81;34.25;100850.81;5039420;28;20087;-27
2024/02/18 09:18:05;;;;;;;27.95;17.55;;;;;;;21.41;32.06;100851.19;5031057;28;20079;-42
2024/02/18 09:20:30;;;;;;;25.50;17.30;;;;;;;21.50;31.19;100848.94;5030986;28;20035;-43
2024/02/18 09:22:56;;;;;;;24.73;16.48;;;;;;;21.65;30.44;100849.13;5030714;28;20033;-40
2024/02/18 09:25:22;;;;;;;24.00;15.98;;;;;;;21.16;31.11;100830.00;5030645;28;20041;-39
2024/02/18 09:27:47;;;;;;;22.88;14.18;;;;;;;20.62;31.48;100834.00;5049299;28;20111;-41
2024/02/18 09:30:13;;;;;;;33.42;22.50;;;;;;;20.01;32.35;100828.25;5050648;28;20028;-39
2024/02/18 09:32:39;;;;;;;21.38;14.20;;;;;;;20.83;31.53;100821.63;5050856;28;20055;-41
2024/02/18 09:35:05;;;;;;;21.58;14.05;;;;;;;19.87;32.14;100819.56;5050393;28;20020;-40
2024/02/18 09:37:30;;;;;;;21.70;12.50;;;;;;;19.54;32.07;100817.50;5050241;28;20025;-38
2024/02/18 09:39:56;;;;;;;17.27;12.10;;;;;;;19.36;32.38;100821.13;5048539;28;20477;-41
2024/02/18 09:42:22;;;;;;;18.35;11.57;;;;;;;18.87;32.71;100813.28;5038962;28;20025;-42
2024/02/18 09:44:48;;;;;;;17.30;11.80;;;;;;;18.58;33.29;100812.22;5042477;28;20040;-40
2024/02/18 09:47:15;;;;;;;19.40;12.45;;;;;;;18.65;33.44;100812.13;5038255;28;20386;-40
2024/02/18 09:49:40;;;;;;;15.25;11.00;;;;;;;18.42;33.56;100800.25;5042644;28;20099;-42
2024/02/18 09:52:06;;;;;;;14.18;10.35;;;;;;;18.50;33.51;100789.13;5039967;28;20108;-42
2024/02/18 09:54:34;;;;;;;14.18;10.30;;;;;;;19.01;32.87;100791.47;5043813;28;20032;-41
2024/02/18 09:57:00;;;;;;;15.20;10.75;;;;;;;19.46;32.44;100791.69;5041077;28;20064;-41
2024/02/18 09:59:25;;;;;;;14.50;10.40;;;;;;;19.30;32.86;100789.69;5039820;28;20064;-40
2024/02/18 10:01:57;;;;;;;18.90;10.27;;;;;;;19.12;32.65;100786.06;5037517;28;20052;-41
2024/02/18 10:04:22;;;;;;;17.02;10.13;;;;;;;19.12;32.71;100777.16;5043741;28;20067;-42
2024/02/18 10:06:48;;;;;;;14.88;10.38;;;;;;;19.84;32.50;100771.44;5040989;28;20017;-40
2024/02/18 10:09:13;;;;;;;14.32;10.57;;;;;;;19.54;32.49;100767.03;5042681;28;20037;-37
2024/02/18 10:11:39;;;;;;;16.90;10.52;;;;;;;19.64;32.31;100758.31;5041530;28;20025;-41
2024/02/18 10:14:06;;;;;;;16.60;10.60;;;;;;;18.90;32.57;100752.66;5032891;28;20405;-40
2024/02/18 10:16:32;;;;;;;17.45;9.88;;;;;;;18.44;33.05;100764.97;5030135;28;20029;-40
2024/02/18 10:18:57;;;;;;;15.30;9.95;;;;;;;18.75;32.80;100762.00;5035311;28;20025;-40
2024/02/18 10:21:25;;;;;;;17.27;10.25;;;;;;;18.72;33.02;100758.94;5050173;28;20035;-44
2024/02/18 10:23:51;;;;;;;14.73;9.77;;;;;;;19.02;32.37;100755.34;5053782;28;20056;-40
2024/02/18 10:26:16;;;;;;;15.60;9.90;;;;;;;18.55;33.29;100761.50;5053957;28;20106;-41
2024/02/18 10:28:42;;;;;;;15.82;9.98;;;;;;;18.73;33.33;100760.56;5054340;28;20025;-44
2024/02/18 10:31:07;;;;;;;15.38;10.88;;;;;;;18.47;33.52;100757.25;5053631;28;20021;-42
2024/02/18 10:33:33;;;;;;;18.65;10.88;;;;;;;17.75;34.67;100751.81;5053951;28;20074;-44
2024/02/18 10:36:11;;;;;;;15.30;10.63;;;;;;;17.51;35.03;100750.84;5053538;28;20021;-41
2024/02/18 10:38:50;;;;;;;18.17;10.50;;;;;;;18.16;34.65;100745.72;5053585;28;20025;-43
2024/02/18 10:41:17;;;;;;;17.80;10.88;;;;;;;18.22;36.99;100754.75;5053170;28;20025;-41
2024/02/18 10:43:50;;;;;;;15.25;10.18;;;;;;;18.26;34.39;100744.31;5053383;28;20465;-41
2024/02/18 10:46:19;;;;;;;16.70;10.18;;;;;;;17.55;35.08;100744.81;5050416;28;20021;-41
2024/02/18 10:48:50;;;;;;;17.75;10.20;;;;;;;16.78;36.64;100747.81;5044305;28;20109;-40
2024/02/18 10:51:20;;;;;;;16.60;10.52;;;;;;;17.08;36.28;100741.81;5046933;28;20053;-40
2024/02/18 10:53:54;;;;;;;18.08;10.73;;;;;;;16.47;37.89;100746.03;5041735;28;20562;-42
2024/02/18 10:56:22;;;;;;;19.27;11.98;;;;;;;16.35;38.31;100743.19;5039745;28;20037;-43
2024/02/18 10:59:07;;;;;;;29.00;12.35;;;;;;;16.02;39.19;100744.22;5047564;28;20450;-42
2024/02/18 11:01:42;;;;;;;19.60;12.50;;;;;;;16.45;38.76;100741.88;5033319;28;20112;-40
2024/02/18 11:04:09;;;;;;;23.13;12.65;;;;;;;15.83;39.97;100737.91;5033394;28;20013;-41
2024/02/18 11:06:39;;;;;;;21.48;12.95;;;;;;;15.69;40.57;100732.78;5046060;28;20191;-41
2024/02/18 11:09:08;;;;;;;20.13;12.30;;;;;;;15.50;40.91;100739.88;5047095;28;20290;-43